Time;durP1;ratioP1;P1;durP2;ratioP2;P2;SDS_P1;SDS_P2;PMS_P1;PMS_P2;Temp;Humidity;BMP_temperature;BMP_pressure;BME280_temperature;BME280_humidity;BME280_pressure;Samples;Min_cycle;Max_cycle;Signal;HPM_P1;HPM_P2
2022/09/04 00:00:00;;;;;;;2.33;2.10;;;;;;;25.86;37.95;101582.66;4996308;28;20045;-64
2022/09/04 00:02:34;;;;;;;2.97;2.03;;;;;;;25.87;37.77;101584.28;4997743;28;20507;-64
2022/09/04 00:05:02;;;;;;;2.22;2.03;;;;;;;25.87;38.12;101589.63;4997913;28;20092;-64
2022/09/04 00:07:54;;;;;;;2.55;1.88;;;;;;;25.88;37.77;101592.09;4995335;28;20062;-64
2022/09/04 00:10:52;;;;;;;1.98;1.80;;;;;;;25.86;38.08;101599.47;4975228;28;21299;-64
2022/09/04 00:13:29;;;;;;;3.03;2.20;;;;;;;25.83;37.81;101589.19;4959126;28;20065;-64
2022/09/04 00:16:19;;;;;;;3.58;2.20;;;;;;;25.81;38.12;101577.06;4996196;28;20111;-64
2022/09/04 00:19:08;;;;;;;2.00;1.90;;;;;;;25.82;37.84;101586.72;4997407;28;20033;-64
2022/09/04 00:21:57;;;;;;;2.60;2.00;;;;;;;25.81;37.85;101587.75;4996476;28;20845;-64
2022/09/04 00:24:27;;;;;;;2.60;2.08;;;;;;;25.79;38.13;101590.63;4967032;28;20443;-64
2022/09/04 00:27:11;;;;;;;1.98;1.77;;;;;;;25.77;38.35;101586.50;4993359;28;20699;-64
2022/09/04 00:30:10;;;;;;;3.20;2.47;;;;;;;25.79;38.14;101600.47;4973991;28;20236;-64
2022/09/04 00:33:16;;;;;;;2.65;2.17;;;;;;;25.79;38.01;101589.81;4978054;28;20040;-64
2022/09/04 00:35:54;;;;;;;2.70;2.22;;;;;;;25.78;38.02;101588.97;4996727;28;20041;-64
2022/09/04 00:38:25;;;;;;;2.88;2.28;;;;;;;25.77;37.85;101590.00;4993247;28;20108;-64
2022/09/04 00:41:18;;;;;;;2.55;2.10;;;;;;;25.77;38.22;101599.84;4991414;28;20042;-64
2022/09/04 00:44:10;;;;;;;2.90;2.30;;;;;;;25.73;38.15;101598.63;4990280;28;20029;-64
2022/09/04 00:46:46;;;;;;;2.45;2.10;;;;;;;25.72;37.96;101596.97;4996600;28;20571;-64
2022/09/04 00:49:59;;;;;;;3.08;2.28;;;;;;;25.73;38.06;101601.28;4991271;28;20062;-64
2022/09/04 00:53:01;;;;;;;2.03;1.90;;;;;;;25.71;37.83;101612.16;4968776;28;20054;-65
2022/09/04 00:55:43;;;;;;;2.28;2.08;;;;;;;25.71;38.04;101608.66;4991710;28;20059;-65
2022/09/04 00:58:21;;;;;;;2.25;1.92;;;;;;;25.70;38.21;101610.50;4994664;28;20038;-65
2022/09/04 01:00:48;;;;;;;2.00;1.80;;;;;;;25.71;38.19;101606.00;4994195;28;20046;-65
2022/09/04 01:03:49;;;;;;;2.85;2.08;;;;;;;25.72;38.17;101618.31;4976935;28;20046;-65
2022/09/04 01:06:20;;;;;;;2.28;2.08;;;;;;;25.71;37.82;101616.66;4907287;28;20796;-65
2022/09/04 01:09:10;;;;;;;2.88;2.40;;;;;;;25.68;38.07;101614.41;4995384;28;20037;-65
2022/09/04 01:12:05;;;;;;;3.13;2.22;;;;;;;25.69;37.91;101624.88;4995650;28;20099;-65
2022/09/04 01:15:00;;;;;;;2.42;2.17;;;;;;;25.68;38.04;101617.06;4992934;28;20037;-65
2022/09/04 01:17:43;;;;;;;2.92;2.33;;;;;;;25.67;38.30;101629.53;4980582;28;20513;-65
2022/09/04 01:20:18;;;;;;;2.67;2.22;;;;;;;25.66;38.21;101635.88;4990456;28;20120;-65
2022/09/04 01:22:47;;;;;;;2.30;2.10;;;;;;;25.64;38.15;101640.59;4994706;28;20053;-65
2022/09/04 01:25:52;;;;;;;2.42;2.10;;;;;;;25.64;38.30;101634.44;4991752;28;20052;-65
2022/09/04 01:28:24;;;;;;;2.90;2.10;;;;;;;25.65;38.16;101636.09;4993384;28;20443;-65
2022/09/04 01:31:06;;;;;;;2.70;2.30;;;;;;;25.52;38.13;101619.03;4994316;28;20735;-65
2022/09/04 01:34:01;;;;;;;3.42;1.90;;;;;;;25.65;38.27;101641.41;4995569;28;20041;-64
2022/09/04 01:36:40;;;;;;;2.83;2.30;;;;;;;25.61;38.13;101631.16;4991603;28;20391;-65
2022/09/04 01:39:05;;;;;;;2.25;2.05;;;;;;;25.61;38.32;101644.50;4994801;28;20184;-65
2022/09/04 01:41:43;;;;;;;3.40;2.40;;;;;;;25.58;38.06;101636.88;4993103;28;22020;-65
2022/09/04 01:44:11;;;;;;;3.35;2.38;;;;;;;25.60;38.34;101642.84;4990274;28;20049;-65
2022/09/04 01:46:52;;;;;;;3.20;2.15;;;;;;;25.59;38.34;101648.38;4993232;28;20391;-65
2022/09/04 01:49:34;;;;;;;3.28;2.13;;;;;;;25.61;38.16;101654.34;4993315;28;20044;-65
2022/09/04 01:52:21;;;;;;;2.67;2.13;;;;;;;25.58;38.15;101655.56;4993735;28;20038;-65
2022/09/04 01:55:07;;;;;;;2.33;2.13;;;;;;;25.59;38.34;101654.53;4994663;28;20037;-65
2022/09/04 01:57:51;;;;;;;2.35;2.15;;;;;;;25.59;38.01;101651.06;4992883;28;20042;-65
2022/09/04 02:00:21;;;;;;;2.65;2.30;;;;;;;25.55;38.12;101653.28;4989246;28;20037;-65
2022/09/04 02:03:24;;;;;;;2.50;2.28;;;;;;;25.57;38.09;101661.91;4996358;28;20037;-65
2022/09/04 02:06:10;;;;;;;2.88;2.38;;;;;;;25.57;38.37;101663.75;4992810;28;20040;-65
2022/09/04 02:09:09;;;;;;;3.42;2.67;;;;;;;25.54;38.05;101659.66;4995451;28;20395;-65
2022/09/04 02:11:35;;;;;;;2.97;2.33;;;;;;;25.54;38.33;101672.16;4991818;28;20120;-65
2022/09/04 02:14:26;;;;;;;2.47;2.25;;;;;;;25.55;38.24;101663.97;4991097;28;20042;-65
2022/09/04 02:17:11;;;;;;;2.72;2.20;;;;;;;25.52;38.42;101671.53;4995456;28;20488;-65
2022/09/04 02:19:47;;;;;;;2.50;2.25;;;;;;;25.54;38.22;101670.31;4993035;28;20593;-65
2022/09/04 02:22:53;;;;;;;3.60;2.35;;;;;;;25.54;38.28;101678.31;4989908;28;20045;-65
2022/09/04 02:25:37;;;;;;;2.72;2.28;;;;;;;25.54;38.32;101680.16;4891923;29;20143;-65
2022/09/04 02:28:23;;;;;;;2.30;2.10;;;;;;;25.53;38.23;101676.69;4982531;28;20443;-65
2022/09/04 02:31:04;;;;;;;2.92;2.47;;;;;;;25.51;38.35;101673.38;4993816;28;20038;-65
2022/09/04 02:33:34;;;;;;;2.50;2.30;;;;;;;25.51;38.17;101673.38;4991068;28;21002;-65
2022/09/04 02:36:28;;;;;;;2.80;2.08;;;;;;;25.52;38.42;101674.22;4995158;28;20033;-65
2022/09/04 02:39:23;;;;;;;4.10;2.42;;;;;;;25.49;38.24;101667.41;4992858;28;20529;-65
2022/09/04 02:42:11;;;;;;;3.72;2.20;;;;;;;25.49;38.20;101669.25;4990511;28;20048;-65
2022/09/04 02:44:46;;;;;;;3.08;2.13;;;;;;;25.50;38.20;101681.59;4992155;28;20149;-65
2022/09/04 02:47:49;;;;;;;2.65;2.30;;;;;;;25.48;38.14;101676.41;4992374;28;20699;-64
2022/09/04 02:50:32;;;;;;;3.00;2.00;;;;;;;25.47;38.28;101673.94;4991775;28;20061;-65
2022/09/04 02:53:27;;;;;;;2.40;2.20;;;;;;;25.47;38.39;101671.28;4991489;28;20029;-65
2022/09/04 02:56:17;;;;;;;2.92;2.40;;;;;;;25.46;38.22;101666.97;4978853;28;20640;-63
2022/09/04 02:59:09;;;;;;;4.03;2.10;;;;;;;25.47;38.12;101676.63;4996389;28;20125;-63
2022/09/04 03:01:47;;;;;;;2.63;2.13;;;;;;;25.44;38.18;101675.19;4996702;28;20042;-63
2022/09/04 03:04:23;;;;;;;2.30;2.10;;;;;;;25.44;38.24;101674.34;4995077;28;20041;-63
2022/09/04 03:06:59;;;;;;;2.95;2.20;;;;;;;25.43;38.17;101678.03;4995320;28;20042;-63
2022/09/04 03:09:39;;;;;;;2.58;2.20;;;;;;;25.44;38.20;101677.84;4995510;28;20496;-63
2022/09/04 03:12:30;;;;;;;3.08;2.40;;;;;;;25.43;38.47;101678.88;4994216;28;20038;-63
2022/09/04 03:15:34;;;;;;;2.97;2.65;;;;;;;25.44;38.46;101680.50;4997764;28;20050;-63
2022/09/04 03:18:21;;;;;;;2.47;2.28;;;;;;;25.41;38.21;101677.41;4939155;28;20043;-63
2022/09/04 03:20:55;;;;;;;2.45;2.25;;;;;;;25.45;38.39;101676.00;4938986;28;20094;-64
2022/09/04 03:23:58;;;;;;;2.80;2.47;;;;;;;25.43;38.20;101678.88;4974614;28;20112;-63
2022/09/04 03:26:26;;;;;;;3.28;2.20;;;;;;;25.41;38.49;101678.25;4965666;28;20646;-63
2022/09/04 03:29:10;;;;;;;2.67;2.45;;;;;;;25.41;38.46;101672.09;4981006;28;20042;-63
2022/09/04 03:31:36;;;;;;;3.13;2.47;;;;;;;25.40;38.26;101681.94;4997972;28;20080;-63
2022/09/04 03:34:34;;;;;;;2.90;2.40;;;;;;;25.41;38.47;101680.09;4997719;28;20041;-63
2022/09/04 03:37:12;;;;;;;3.35;2.13;;;;;;;25.38;38.45;101691.16;4999214;28;20043;-63
2022/09/04 03:39:38;;;;;;;2.53;2.17;;;;;;;25.39;38.24;101692.78;4998051;28;20498;-63
2022/09/04 03:42:13;;;;;;;2.92;2.30;;;;;;;25.39;38.48;101687.47;4997113;28;20041;-63
2022/09/04 03:45:01;;;;;;;3.10;2.60;;;;;;;25.36;38.56;101694.00;4993626;28;20080;-63
2022/09/04 03:47:44;;;;;;;2.78;2.30;;;;;;;25.36;38.57;101687.84;4993345;28;20038;-63
2022/09/04 03:50:32;;;;;;;2.50;2.30;;;;;;;25.38;38.63;101691.16;4995645;28;20038;-63
2022/09/04 03:53:11;;;;;;;2.53;2.33;;;;;;;25.36;38.48;101693.19;4994462;28;20399;-64
2022/09/04 03:56:05;;;;;;;2.40;2.20;;;;;;;25.36;38.55;101698.53;4997899;28;20754;-64
2022/09/04 03:58:43;;;;;;;2.70;2.50;;;;;;;25.35;38.61;101703.03;4994837;28;20549;-63
2022/09/04 04:01:27;;;;;;;3.38;2.28;;;;;;;25.35;38.26;101710.19;4992172;28;20048;-63
2022/09/04 04:04:14;;;;;;;2.50;2.08;;;;;;;25.34;38.54;101712.03;4994892;28;20384;-63
2022/09/04 04:07:07;;;;;;;2.28;2.08;;;;;;;25.33;38.54;101713.06;4995339;28;20040;-63
2022/09/04 04:09:55;;;;;;;2.75;2.50;;;;;;;25.32;38.62;101716.75;4995020;28;20046;-63
2022/09/04 04:12:39;;;;;;;4.93;2.47;;;;;;;25.34;38.60;101721.88;4994622;28;20049;-64
2022/09/04 04:15:23;;;;;;;2.83;2.47;;;;;;;25.34;38.52;101719.22;4994011;28;20511;-63
2022/09/04 04:18:16;;;;;;;3.63;2.67;;;;;;;25.34;38.70;101722.72;4994881;28;20095;-63
2022/09/04 04:20:58;;;;;;;2.97;2.50;;;;;;;25.32;38.41;101718.59;4994373;28;20841;-63
2022/09/04 04:23:57;;;;;;;3.30;2.45;;;;;;;25.30;38.64;101716.09;4992690;28;20945;-63
2022/09/04 04:26:46;;;;;;;2.65;2.42;;;;;;;25.30;38.54;101724.91;4992227;28;20034;-63
2022/09/04 04:29:59;;;;;;;2.57;2.27;;;;;;;25.30;38.47;101727.59;4992293;28;20038;-63
2022/09/04 04:32:50;;;;;;;2.70;2.35;;;;;;;25.32;38.34;101729.25;4995732;28;20041;-63
2022/09/04 04:35:43;;;;;;;4.03;2.63;;;;;;;25.28;38.56;101731.47;4977019;28;20081;-63
2022/09/04 04:38:19;;;;;;;2.65;2.45;;;;;;;25.28;38.69;101737.63;4994310;28;20115;-63
2022/09/04 04:41:03;;;;;;;4.22;2.30;;;;;;;25.23;38.69;101739.22;4996446;28;20058;-63
2022/09/04 04:43:28;;;;;;;2.97;2.45;;;;;;;25.26;38.67;101747.66;4989718;28;20103;-63
2022/09/04 04:46:07;;;;;;;2.70;2.20;;;;;;;25.28;38.52;101744.78;4994497;28;20033;-63
2022/09/04 04:48:36;;;;;;;3.63;2.38;;;;;;;25.25;38.71;101748.69;4996117;28;20041;-63
2022/09/04 04:51:49;;;;;;;2.80;2.50;;;;;;;25.22;38.43;101746.41;4994596;28;20048;-63
2022/09/04 04:54:39;;;;;;;3.38;2.47;;;;;;;25.25;38.56;101754.00;4961566;28;20069;-63
2022/09/04 04:57:16;;;;;;;3.38;2.70;;;;;;;25.25;38.62;101759.34;4992716;28;20041;-63
2022/09/04 04:59:54;;;;;;;2.60;2.40;;;;;;;25.24;38.44;101765.69;4989360;28;20034;-63
2022/09/04 05:02:33;;;;;;;2.80;2.50;;;;;;;25.23;38.69;101768.56;4994720;28;20061;-63
2022/09/04 05:05:06;;;;;;;2.65;2.33;;;;;;;25.23;38.54;101768.56;4994232;28;20037;-65
2022/09/04 05:07:59;;;;;;;3.38;2.58;;;;;;;25.21;38.77;101768.75;4994306;28;20029;-63
2022/09/04 05:10:46;;;;;;;3.70;2.60;;;;;;;25.22;38.52;101772.25;4994392;28;20042;-63
2022/09/04 05:13:45;;;;;;;3.47;2.65;;;;;;;25.21;38.38;101775.91;4993103;28;20083;-64
2022/09/04 05:16:46;;;;;;;2.60;2.40;;;;;;;25.23;38.43;101773.88;4991351;28;20113;-63
2022/09/04 05:19:41;;;;;;;2.47;2.28;;;;;;;25.21;38.47;101779.41;4990094;28;20132;-63
2022/09/04 05:22:24;;;;;;;3.33;2.30;;;;;;;25.20;38.80;101785.75;4984682;28;20111;-63
2022/09/04 05:25:20;;;;;;;2.83;2.30;;;;;;;25.20;38.57;101788.44;4991362;28;20032;-63
2022/09/04 05:28:18;;;;;;;2.72;2.30;;;;;;;25.17;38.69;101790.66;4992455;28;20103;-65
2022/09/04 05:30:50;;;;;;;2.88;2.30;;;;;;;25.18;38.72;101797.63;4992696;28;20050;-63
2022/09/04 05:33:34;;;;;;;2.83;2.45;;;;;;;25.20;38.58;101807.09;4992814;28;20041;-63
2022/09/04 05:36:28;;;;;;;3.83;2.78;;;;;;;25.17;38.74;101803.97;4994753;28;20104;-63
2022/09/04 05:39:09;;;;;;;3.78;2.40;;;;;;;25.20;38.54;101822.25;4994408;28;20040;-64
2022/09/04 05:41:50;;;;;;;3.15;2.60;;;;;;;25.18;38.81;101825.13;4992948;28;20149;-63
2022/09/04 05:44:43;;;;;;;3.50;2.58;;;;;;;25.17;38.80;101820.81;4993106;28;20046;-64
2022/09/04 05:48:06;;;;;;;3.20;2.65;;;;;;;25.16;38.85;101821.00;4992550;28;20120;-63
2022/09/04 05:51:00;;;;;;;2.97;2.35;;;;;;;25.16;38.85;101826.31;4910665;29;20047;-64
2022/09/04 05:53:59;;;;;;;3.20;2.30;;;;;;;25.17;38.67;101823.47;4897783;29;20171;-64
2022/09/04 05:56:49;;;;;;;4.00;2.58;;;;;;;25.16;38.52;101823.66;4989141;28;20088;-64
2022/09/04 05:59:29;;;;;;;3.72;2.50;;;;;;;25.18;38.54;101829.63;4990715;28;20492;-64
2022/09/04 06:02:27;;;;;;;2.90;2.38;;;;;;;25.17;38.49;101823.47;4992838;28;20125;-64
2022/09/04 06:05:24;;;;;;;3.40;2.00;;;;;;;25.15;38.56;101819.34;4993159;28;20476;-65
2022/09/04 06:07:49;;;;;;;2.72;2.33;;;;;;;25.15;38.59;101820.16;4957214;28;20064;-66
2022/09/04 06:10:39;;;;;;;3.80;2.70;;;;;;;25.16;38.46;101816.50;4992088;28;20409;-65
2022/09/04 06:13:20;;;;;;;2.97;2.47;;;;;;;25.13;38.47;101819.50;4988887;28;20587;-64
2022/09/04 06:16:00;;;;;;;3.20;2.50;;;;;;;25.16;38.50;101823.66;4993016;28;20069;-65
2022/09/04 06:18:43;;;;;;;2.90;2.60;;;;;;;25.15;38.59;101828.16;4991800;28;20103;-65
2022/09/04 06:21:34;;;;;;;3.70;2.40;;;;;;;25.14;38.56;101833.69;4992822;28;20713;-65
2022/09/04 06:24:24;;;;;;;3.03;2.72;;;;;;;25.15;38.46;101835.34;4991547;28;20049;-65
2022/09/04 06:27:12;;;;;;;3.40;2.78;;;;;;;25.15;38.27;101833.50;4978156;28;20046;-65
2022/09/04 06:30:06;;;;;;;3.05;2.67;;;;;;;25.16;38.45;101840.47;4989526;28;20041;-65
2022/09/04 06:32:42;;;;;;;2.58;2.33;;;;;;;25.15;38.53;101846.81;4970125;28;20699;-65
2022/09/04 06:35:35;;;;;;;3.53;2.53;;;;;;;25.15;38.53;101852.16;4993239;28;20618;-65
2022/09/04 06:38:31;;;;;;;2.72;2.53;;;;;;;25.15;38.54;101849.50;4993550;28;20113;-65
2022/09/04 06:41:03;;;;;;;2.75;2.40;;;;;;;25.17;38.45;101846.63;4990302;28;20494;-65
2022/09/04 06:43:47;;;;;;;3.15;2.70;;;;;;;25.15;38.43;101846.81;4991971;28;20033;-65
2022/09/04 06:46:34;;;;;;;4.25;2.70;;;;;;;25.07;38.35;101846.94;4988902;28;20504;-64
2022/09/04 06:49:12;;;;;;;3.70;2.60;;;;;;;25.12;38.27;101849.00;4992717;28;20048;-64
2022/09/04 06:51:44;;;;;;;5.18;2.70;;;;;;;25.09;37.77;101860.88;4991088;28;20042;-64
2022/09/04 06:54:28;;;;;;;4.53;2.42;;;;;;;25.08;36.74;101850.41;4989768;28;20647;-62
2022/09/04 06:57:21;;;;;;;3.80;2.60;;;;;;;25.07;36.79;101851.44;4978943;28;20953;-62
2022/09/04 06:59:52;;;;;;;5.57;2.92;;;;;;;25.08;36.84;101853.09;5000008;28;20129;-62
2022/09/04 07:02:46;;;;;;;6.25;2.58;;;;;;;25.08;36.81;101855.75;4992107;28;20085;-62
2022/09/04 07:05:48;;;;;;;6.93;3.20;;;;;;;25.06;37.00;101850.63;5001153;28;20500;-62
2022/09/04 07:08:30;;;;;;;3.92;2.90;;;;;;;25.13;36.98;101858.66;4983026;28;20068;-63
2022/09/04 07:11:08;;;;;;;4.45;2.78;;;;;;;25.18;37.14;101856.28;4996748;28;20050;-62
2022/09/04 07:14:15;;;;;;;4.88;3.05;;;;;;;25.14;36.86;101863.00;4997961;28;20069;-62
2022/09/04 07:17:20;;;;;;;3.65;2.97;;;;;;;25.14;37.33;101869.16;4998025;28;20033;-63
2022/09/04 07:20:01;;;;;;;4.35;2.75;;;;;;;25.17;37.21;101867.94;4997714;28;20042;-63
2022/09/04 07:22:46;;;;;;;2.92;2.60;;;;;;;25.18;37.39;101869.59;4996631;28;20061;-63
2022/09/04 07:25:59;;;;;;;4.82;2.72;;;;;;;25.17;37.13;101876.78;4992810;28;20118;-63
2022/09/04 07:28:57;;;;;;;3.40;2.80;;;;;;;25.17;37.47;101876.78;4933590;28;20549;-62
2022/09/04 07:31:33;;;;;;;5.43;2.55;;;;;;;25.17;37.69;101879.44;4905081;28;20082;-64
2022/09/04 07:34:28;;;;;;;4.32;2.83;;;;;;;25.24;37.36;101879.50;4983969;28;20046;-63
2022/09/04 07:37:03;;;;;;;4.57;2.90;;;;;;;25.27;37.72;101882.59;4991118;28;20117;-63
2022/09/04 07:39:34;;;;;;;4.82;2.70;;;;;;;25.30;37.49;101879.53;4993327;28;20401;-64
2022/09/04 07:42:19;;;;;;;3.47;2.63;;;;;;;25.33;37.65;101881.03;4993946;28;20149;-64
2022/09/04 07:45:00;;;;;;;3.30;2.53;;;;;;;25.35;37.87;101881.66;4981685;28;20109;-64
2022/09/04 07:47:36;;;;;;;4.13;2.55;;;;;;;25.37;37.53;101881.47;4997517;28;20103;-64
2022/09/04 07:50:08;;;;;;;4.28;2.78;;;;;;;25.37;37.54;101876.13;4991664;28;20108;-63
2022/09/04 07:52:43;;;;;;;3.88;2.50;;;;;;;25.39;37.72;101880.25;5003653;28;20044;-64
2022/09/04 07:55:21;;;;;;;4.95;2.97;;;;;;;25.40;37.90;101873.91;5000465;28;20045;-64
2022/09/04 07:58:19;;;;;;;2.90;2.42;;;;;;;25.44;37.77;101869.00;4999662;28;20530;-64
2022/09/04 08:01:22;;;;;;;4.93;3.05;;;;;;;25.41;37.66;101882.72;5001834;28;20159;-64
2022/09/04 08:04:31;;;;;;;3.25;2.63;;;;;;;25.44;37.65;101887.66;5000795;28;20451;-64
2022/09/04 08:07:05;;;;;;;3.47;2.40;;;;;;;25.46;37.65;101896.31;4943541;28;20054;-64
2022/09/04 08:09:46;;;;;;;3.95;2.75;;;;;;;25.46;37.74;101897.13;4998816;28;20045;-64
2022/09/04 08:12:15;;;;;;;3.83;2.95;;;;;;;25.45;37.74;101898.16;5004367;28;20042;-64
2022/09/04 08:14:44;;;;;;;4.47;2.70;;;;;;;25.46;37.71;101904.31;5001173;28;20495;-64
2022/09/04 08:17:24;;;;;;;;;;;;;;;25.48;37.79;101900.41;5000718;28;20041;-66
2022/09/04 08:19:59;;;;;;;6.10;3.10;;;;;;;25.49;37.61;101906.59;5001679;28;19914;-65
2022/09/04 08:22:35;;;;;;;5.10;3.05;;;;;;;25.51;37.60;101908.06;4988726;28;20455;-64
2022/09/04 08:25:15;;;;;;;3.53;2.70;;;;;;;25.51;37.84;101904.56;5001403;28;20034;-66
2022/09/04 08:27:54;;;;;;;3.08;2.65;;;;;;;25.54;37.62;101906.84;5002084;28;20081;-64
2022/09/04 08:30:20;;;;;;;3.78;3.03;;;;;;;25.50;37.60;101914.41;5002916;28;20038;-64
2022/09/04 08:33:08;;;;;;;3.33;2.72;;;;;;;25.54;37.67;101920.19;4989016;28;20025;-63
2022/09/04 08:36:03;;;;;;;2.90;2.50;;;;;;;25.57;37.77;101919.81;4999631;28;20102;-64
2022/09/04 08:38:44;;;;;;;3.70;2.72;;;;;;;25.56;37.89;101920.81;4991824;28;20058;-64
2022/09/04 08:41:24;;;;;;;2.40;2.20;;;;;;;25.57;37.95;101922.47;5000914;28;20048;-63
2022/09/04 08:44:11;;;;;;;3.60;2.70;;;;;;;25.56;37.99;101924.31;4996893;28;20484;-64
2022/09/04 08:46:55;;;;;;;3.97;2.53;;;;;;;25.59;37.85;101931.09;5002966;28;20046;-64
2022/09/04 08:49:40;;;;;;;2.83;2.58;;;;;;;25.59;38.16;101931.94;5000237;28;20037;-64
2022/09/04 08:52:11;;;;;;;3.25;2.85;;;;;;;25.61;37.97;101927.22;5004088;28;20052;-64
2022/09/04 08:55:00;;;;;;;3.45;2.80;;;;;;;25.60;37.69;101930.09;5001537;28;20041;-64
2022/09/04 08:57:41;;;;;;;2.80;2.50;;;;;;;25.61;38.10;101931.72;4997170;28;20488;-64
2022/09/04 09:00:09;;;;;;;2.75;2.47;;;;;;;25.64;37.78;101934.00;5000171;28;20135;-64
2022/09/04 09:03:05;;;;;;;5.47;2.97;;;;;;;25.61;37.79;101929.06;4999432;28;20041;-65
2022/09/04 09:05:54;;;;;;;4.05;2.85;;;;;;;25.63;37.99;101932.34;4999069;28;20161;-64
2022/09/04 09:09:04;;;;;;;3.30;2.65;;;;;;;25.66;37.75;101939.16;4999314;28;20038;-64
2022/09/04 09:12:11;;;;;;;5.65;2.95;;;;;;;25.66;37.85;101931.16;5000973;28;20543;-64
2022/09/04 09:14:51;;;;;;;3.55;2.67;;;;;;;25.68;38.11;101938.00;4906415;28;20054;-64
2022/09/04 09:17:26;;;;;;;3.63;2.70;;;;;;;25.68;38.12;101931.84;4999083;28;20052;-66
2022/09/04 09:20:21;;;;;;;5.50;2.85;;;;;;;25.69;37.92;101933.50;5000936;28;20039;-65
2022/09/04 09:23:24;;;;;;;3.00;2.40;;;;;;;25.68;37.88;101934.50;5000797;28;20050;-64
2022/09/04 09:26:07;;;;;;;3.10;2.55;;;;;;;25.68;37.92;101932.66;5003129;28;20084;-65
2022/09/04 09:29:18;;;;;;;4.05;2.78;;;;;;;25.68;38.19;101932.66;4999783;28;20133;-65
2022/09/04 09:32:00;;;;;;;4.78;2.92;;;;;;;25.66;38.06;101926.63;4998327;28;20045;-64
2022/09/04 09:34:34;;;;;;;3.60;2.70;;;;;;;25.68;37.88;101929.16;4980386;28;20065;-64
2022/09/04 09:37:23;;;;;;;3.20;2.78;;;;;;;25.67;38.30;101936.28;5000384;28;20105;-64
2022/09/04 09:40:36;;;;;;;3.70;2.72;;;;;;;25.69;38.11;101930.81;5000817;28;20121;-64
2022/09/04 09:43:28;;;;;;;3.40;2.75;;;;;;;25.69;38.04;101934.31;4994907;28;20083;-65
2022/09/04 09:46:00;;;;;;;3.45;2.55;;;;;;;25.69;38.14;101934.31;4999994;28;20036;-65
2022/09/04 09:48:46;;;;;;;3.58;2.53;;;;;;;25.68;38.01;101915.84;4997681;28;20041;-63
2022/09/04 09:51:49;;;;;;;3.08;2.70;;;;;;;25.70;38.31;101930.63;5000413;28;20080;-66
2022/09/04 09:54:54;;;;;;;3.15;2.75;;;;;;;25.69;37.97;101914.81;4997186;28;20080;-65
2022/09/04 09:57:59;;;;;;;2.97;2.60;;;;;;;25.69;38.31;101920.16;4997590;28;20767;-63
2022/09/04 10:00:35;;;;;;;4.00;2.60;;;;;;;25.66;37.96;101913.31;5002025;28;20041;-63
2022/09/04 10:03:01;;;;;;;2.67;2.47;;;;;;;25.71;38.09;101915.44;4993952;28;20488;-66
2022/09/04 10:05:45;;;;;;;3.28;2.67;;;;;;;25.72;38.29;101917.91;5000525;28;20030;-66
2022/09/04 10:08:33;;;;;;;3.00;2.40;;;;;;;25.71;38.03;101915.44;5000757;28;20129;-65
2022/09/04 10:11:32;;;;;;;3.80;2.80;;;;;;;25.70;38.10;101913.78;5000995;28;20046;-66
2022/09/04 10:14:19;;;;;;;3.35;2.58;;;;;;;25.70;38.18;101919.97;5000814;28;20073;-65
2022/09/04 10:17:18;;;;;;;2.90;2.60;;;;;;;25.70;38.27;101911.13;4995703;28;20037;-66
2022/09/04 10:20:07;;;;;;;3.15;2.78;;;;;;;25.70;38.24;101914.63;4997021;28;20042;-65
2022/09/04 10:22:47;;;;;;;3.40;2.90;;;;;;;25.70;38.46;101911.94;5001096;28;20076;-65
2022/09/04 10:25:27;;;;;;;3.65;2.63;;;;;;;25.72;38.16;101906.41;5000871;28;20041;-65
2022/09/04 10:27:55;;;;;;;3.25;2.67;;;;;;;25.72;38.12;101911.75;4996914;28;20041;-65
2022/09/04 10:30:23;;;;;;;2.50;2.30;;;;;;;25.67;38.55;101908.78;5001140;28;20499;-65
2022/09/04 10:32:54;;;;;;;3.28;2.90;;;;;;;25.71;38.50;101910.09;4999059;28;20030;-65
2022/09/04 10:35:24;;;;;;;3.35;2.75;;;;;;;25.70;38.55;101906.63;4999826;28;20153;-65
2022/09/04 10:37:55;;;;;;;2.75;2.35;;;;;;;25.72;38.34;101909.91;4999650;28;20037;-66
2022/09/04 10:40:46;;;;;;;2.83;2.55;;;;;;;25.72;38.25;101914.44;4999416;28;20069;-65
2022/09/04 10:43:37;;;;;;;3.10;2.50;;;;;;;25.71;38.30;101913.59;4993029;28;20399;-65
2022/09/04 10:46:25;;;;;;;3.03;2.60;;;;;;;25.73;38.06;101913.41;5003032;28;20503;-66
2022/09/04 10:49:05;;;;;;;3.28;2.63;;;;;;;25.72;38.41;101912.59;4993318;28;20065;-65
2022/09/04 10:51:49;;;;;;;3.47;2.70;;;;;;;25.74;38.54;101912.38;4996441;28;20042;-65
2022/09/04 10:54:39;;;;;;;3.22;2.92;;;;;;;25.73;38.22;101916.91;4998739;28;20026;-65
2022/09/04 10:57:46;;;;;;;5.53;2.78;;;;;;;25.74;38.13;101912.38;5002636;28;20513;-65
2022/09/04 11:00:20;;;;;;;2.92;2.38;;;;;;;25.73;38.12;101916.06;4998146;28;20480;-65
2022/09/04 11:03:14;;;;;;;3.17;2.70;;;;;;;25.76;38.04;101921.84;4991799;28;20543;-65
2022/09/04 11:06:13;;;;;;;2.65;2.40;;;;;;;25.73;38.12;101916.91;4999839;28;20239;-65
2022/09/04 11:08:57;;;;;;;2.80;2.60;;;;;;;25.74;38.13;101917.72;5001025;28;20034;-65
2022/09/04 11:11:34;;;;;;;3.30;2.80;;;;;;;25.76;38.08;101919.16;4997137;28;20113;-65
2022/09/04 11:14:05;;;;;;;3.00;2.60;;;;;;;25.77;38.35;101914.66;5000868;28;20112;-65
2022/09/04 11:16:52;;;;;;;3.25;2.70;;;;;;;25.74;38.42;101913.22;5000936;28;20084;-65
2022/09/04 11:19:40;;;;;;;2.95;2.42;;;;;;;25.76;38.43;101921.84;5003868;28;20050;-65
2022/09/04 11:22:33;;;;;;;2.58;2.38;;;;;;;25.75;38.08;101914.84;5001634;28;20033;-66
2022/09/04 11:25:46;;;;;;;2.97;2.53;;;;;;;25.77;38.09;101912.00;5002270;28;20518;-65
2022/09/04 11:28:50;;;;;;;2.63;2.40;;;;;;;25.76;38.26;101913.84;4946954;28;20051;-65
2022/09/04 11:31:54;;;;;;;3.83;2.50;;;;;;;25.77;38.28;101914.66;5002103;28;20550;-65
2022/09/04 11:34:50;;;;;;;3.05;2.60;;;;;;;25.76;38.38;101916.50;4971150;28;20053;-65
2022/09/04 11:37:55;;;;;;;2.90;2.60;;;;;;;25.76;38.17;101918.34;5004084;28;20379;-65
2022/09/04 11:40:39;;;;;;;2.83;2.53;;;;;;;25.77;38.44;101917.34;5002604;28;20099;-65
2022/09/04 11:43:07;;;;;;;3.25;2.60;;;;;;;25.79;38.24;101920.63;5002876;28;20040;-65
2022/09/04 11:45:46;;;;;;;2.95;2.60;;;;;;;25.75;38.42;101919.38;5001235;28;20038;-65
2022/09/04 11:48:18;;;;;;;3.00;2.70;;;;;;;25.78;38.25;101918.97;5002149;28;20091;-65
2022/09/04 11:51:17;;;;;;;3.00;2.60;;;;;;;25.72;38.24;101917.09;4999905;28;20388;-65
2022/09/04 11:54:13;;;;;;;4.40;2.50;;;;;;;25.79;38.51;101918.78;4993522;28;20033;-66
2022/09/04 11:56:50;;;;;;;3.03;2.60;;;;;;;25.78;38.33;101924.31;5001052;28;20053;-65
2022/09/04 11:59:53;;;;;;;2.90;2.45;;;;;;;25.78;38.24;101916.31;4992336;28;20595;-64
2022/09/04 12:02:40;;;;;;;3.75;2.60;;;;;;;25.78;38.09;101917.13;4996642;28;20042;-65
2022/09/04 12:05:41;;;;;;;5.07;2.70;;;;;;;25.78;38.29;101917.13;4993472;28;20076;-64
2022/09/04 12:08:37;;;;;;;2.80;2.50;;;;;;;25.78;38.28;101922.47;4990691;28;20037;-64
2022/09/04 12:11:44;;;;;;;3.78;2.55;;;;;;;25.80;38.52;101930.28;4989721;28;20072;-64
2022/09/04 12:14:25;;;;;;;4.30;2.65;;;;;;;25.81;38.61;101922.09;4959255;28;20080;-64
2022/09/04 12:17:09;;;;;;;5.32;3.22;;;;;;;25.81;38.54;101919.41;4992020;28;20766;-64
2022/09/04 12:19:57;;;;;;;3.70;3.10;;;;;;;25.81;38.48;101915.91;4994304;28;20037;-64
2022/09/04 12:22:49;;;;;;;3.55;2.80;;;;;;;25.82;38.30;101917.56;4978443;28;20893;-64
2022/09/04 12:25:34;;;;;;;3.10;2.67;;;;;;;25.83;38.71;101914.69;4982536;28;22108;-64
2022/09/04 12:28:36;;;;;;;2.88;2.58;;;;;;;25.82;38.10;101913.06;4996564;28;20384;-64
2022/09/04 12:31:05;;;;;;;3.08;2.78;;;;;;;25.81;38.53;101908.75;4990606;28;20165;-64
2022/09/04 12:33:41;;;;;;;2.95;2.42;;;;;;;25.80;38.65;101908.94;4989074;28;20048;-64
2022/09/04 12:36:16;;;;;;;3.30;2.42;;;;;;;25.82;38.39;101922.91;4992049;28;20031;-64
2022/09/04 12:38:51;;;;;;;3.08;2.60;;;;;;;25.81;38.84;101916.75;4995934;28;20045;-64
2022/09/04 12:41:34;;;;;;;3.25;2.63;;;;;;;25.81;38.93;101914.06;4990715;28;20104;-64
2022/09/04 12:44:30;;;;;;;3.55;2.58;;;;;;;25.83;38.48;101913.88;4995690;28;20058;-64
2022/09/04 12:47:32;;;;;;;3.08;2.60;;;;;;;25.82;38.74;101917.56;4983555;28;20228;-64
2022/09/04 12:50:52;;;;;;;3.20;2.60;;;;;;;25.83;38.53;101914.69;4976596;28;20058;-65